createdAt,value
2018-09-22T00:00:14.006Z,68.72
2018-09-22T00:01:41.669Z,68.80
2018-09-22T00:02:52.649Z,69.06
2018-09-22T00:11:42.342Z,69.42
2018-09-22T00:12:52.988Z,69.55
2018-09-22T00:14:00.800Z,70.08
2018-09-22T00:15:22.514Z,69.83
2018-09-22T00:16:38.413Z,69.96
2018-09-22T00:17:52.336Z,69.88
2018-09-22T00:19:00.721Z,70.08
2018-09-22T00:20:12.465Z,70.11
2018-09-22T00:21:24.959Z,70.19
2018-09-22T00:22:33.886Z,70.51
2018-09-22T00:23:42.700Z,70.64
2018-09-22T00:24:48.851Z,70.43
2018-09-22T00:25:54.238Z,70.53
2018-09-22T00:27:04.655Z,70.54
2018-09-22T00:28:10.910Z,70.90
2018-09-22T00:29:17.769Z,70.79
2018-09-22T00:30:27.307Z,71.01
2018-09-22T00:31:32.953Z,71.24
2018-09-22T00:32:38.303Z,71.25
2018-09-22T00:33:46.153Z,71.34
2018-09-22T00:34:53.394Z,71.06
2018-09-22T00:35:59.057Z,71.43
2018-09-22T00:37:17.019Z,71.33
2018-09-22T00:38:37.604Z,71.21
2018-09-22T00:39:43.113Z,71.68
2018-09-22T00:40:48.006Z,71.66
2018-09-22T00:41:53.073Z,71.83
2018-09-22T00:43:00.598Z,71.76
2018-09-22T00:44:18.962Z,71.90
2018-09-22T00:45:24.150Z,71.81
2018-09-22T00:46:39.403Z,71.80
2018-09-22T00:47:55.262Z,72.02
2018-09-22T00:49:04.424Z,71.73
2018-09-22T00:50:15.491Z,72.05
2018-09-22T00:51:20.848Z,72.33
2018-09-22T00:52:29.304Z,72.17
2018-09-22T00:56:19.213Z,72.56
2018-09-22T00:57:29.954Z,72.40
2018-09-22T00:59:02.076Z,72.57
2018-09-22T01:00:25.838Z,72.49
2018-09-22T01:01:42.265Z,72.42
2018-09-22T01:02:57.987Z,72.63
2018-09-22T01:04:16.784Z,72.86
2018-09-22T01:05:38.310Z,73.25
2018-09-22T01:06:47.442Z,73.26
2018-09-22T01:08:02.284Z,73.10
2018-09-22T01:09:12.253Z,73.07
2018-09-22T01:11:45.818Z,73.15
2018-09-22T01:12:55.976Z,73.24
2018-09-22T01:15:48.757Z,73.51
2018-09-22T01:17:01.989Z,73.39
2018-09-22T01:18:09.128Z,73.41
2018-09-22T01:19:16.956Z,73.60
2018-09-22T01:20:29.334Z,73.54
2018-09-22T01:21:38.620Z,73.90
2018-09-22T01:25:40.278Z,74.04
2018-09-22T01:26:45.029Z,73.83
2018-09-22T01:27:49.715Z,73.79
2018-09-22T01:29:27.559Z,73.97
2018-09-22T01:30:34.470Z,73.86
2018-09-22T01:31:41.271Z,73.82
2018-09-22T01:33:04.970Z,73.89
2018-09-22T01:34:09.837Z,73.74
2018-09-22T01:35:14.554Z,73.92
2018-09-22T01:36:19.533Z,73.82
2018-09-22T01:37:24.298Z,73.75
2018-09-22T01:38:43.264Z,74.26
2018-09-22T01:39:49.188Z,74.15
2018-09-22T01:41:03.658Z,74.36
2018-09-22T01:42:08.755Z,74.50
2018-09-22T01:43:17.063Z,74.20
2018-09-22T01:44:24.012Z,74.39
2018-09-22T01:45:34.516Z,74.43
2018-09-22T01:46:39.326Z,74.45
2018-09-22T01:47:44.539Z,74.62
2018-09-22T01:48:55.616Z,74.62
2018-09-22T01:50:00.819Z,74.54
2018-09-22T01:51:11.148Z,74.78
2018-09-22T01:52:17.678Z,74.98
2018-09-22T01:53:24.794Z,74.75
2018-09-22T01:54:29.474Z,75.00
2018-09-22T01:55:40.838Z,74.83
2018-09-22T01:56:45.690Z,75.03
2018-09-22T01:57:50.588Z,74.96
2018-09-22T01:58:56.791Z,74.74
2018-09-22T02:00:01.653Z,74.95
2018-09-22T02:01:19.187Z,74.92
2018-09-22T02:02:23.856Z,75.00
2018-09-22T02:03:30.947Z,75.34
2018-09-22T02:04:36.340Z,75.03
2018-09-22T02:05:45.001Z,75.33
2018-09-22T02:08:25.716Z,75.24
2018-09-22T02:09:44.772Z,75.28
2018-09-22T02:10:51.987Z,75.69
2018-09-22T02:12:05.144Z,75.85
2018-09-22T02:13:18.601Z,75.80
2018-09-22T02:14:26.347Z,75.87
2018-09-22T02:15:33.080Z,75.96
2018-09-22T02:16:37.959Z,75.95
2018-09-22T02:17:43.768Z,76.32
2018-09-22T02:18:48.522Z,76.20
2018-09-22T02:19:55.167Z,76.25
2018-09-22T02:21:00.293Z,76.37
2018-09-22T02:22:05.650Z,76.77
2018-09-22T02:23:11.632Z,76.69
2018-09-22T02:24:17.267Z,76.79
2018-09-22T02:25:23.803Z,76.76
2018-09-22T02:26:35.836Z,76.94
2018-09-22T02:27:43.453Z,76.95
2018-09-22T02:28:48.623Z,76.97
2018-09-22T02:29:56.320Z,76.85
2018-09-22T02:31:03.116Z,76.81
2018-09-22T02:32:07.817Z,76.68
2018-09-22T02:33:15.913Z,76.92
2018-09-22T02:34:23.797Z,77.12
2018-09-22T02:35:28.815Z,76.79
2018-09-22T02:36:37.508Z,76.93
2018-09-22T02:37:51.342Z,77.16
2018-09-22T02:38:59.545Z,77.08
2018-09-22T02:40:06.603Z,77.20
2018-09-22T02:41:15.087Z,77.16
2018-09-22T02:42:20.060Z,77.47
2018-09-22T02:43:25.967Z,77.55
2018-09-22T02:44:32.663Z,77.45
2018-09-22T02:45:38.431Z,77.47
2018-09-22T02:46:44.992Z,77.62
2018-09-22T02:47:53.380Z,77.72
2018-09-22T02:48:58.097Z,77.82
2018-09-22T02:50:04.464Z,77.43
2018-09-22T02:51:09.318Z,77.51
2018-09-22T02:52:15.283Z,77.57
2018-09-22T02:53:22.601Z,77.48
2018-09-22T02:54:27.621Z,77.87
2018-09-22T02:55:33.354Z,77.58
2018-09-22T02:56:44.471Z,77.81
2018-09-22T02:57:49.463Z,77.89
2018-09-22T02:58:55.706Z,77.85
2018-09-22T03:00:02.741Z,77.84
2018-09-22T03:01:12.300Z,78.23
2018-09-22T03:02:17.937Z,78.25
2018-09-22T03:03:24.526Z,78.27
2018-09-22T03:04:30.645Z,78.24
2018-09-22T03:05:36.910Z,78.53
2018-09-22T03:06:44.348Z,78.57
2018-09-22T03:07:50.653Z,78.34
2018-09-22T03:08:56.340Z,78.60
2018-09-22T03:10:01.030Z,78.39
2018-09-22T03:11:05.875Z,78.46
2018-09-22T03:12:10.861Z,78.45
2018-09-22T03:13:16.171Z,78.42
2018-09-22T03:14:21.451Z,78.36
2018-09-22T03:15:26.149Z,78.46
2018-09-22T03:16:31.582Z,78.35
2018-09-22T03:17:36.993Z,78.44
2018-09-22T03:18:41.960Z,78.51
2018-09-22T03:19:46.708Z,78.25
2018-09-22T03:20:51.369Z,78.54
2018-09-22T03:21:56.075Z,78.48
2018-09-22T03:23:00.792Z,78.20
2018-09-22T03:24:05.589Z,78.59
2018-09-22T03:25:10.873Z,78.68
2018-09-22T03:26:16.593Z,78.61
2018-09-22T03:27:22.060Z,78.55
2018-09-22T03:28:27.270Z,78.49
2018-09-22T03:29:32.832Z,78.63
2018-09-22T03:30:37.532Z,78.76
2018-09-22T03:31:43.197Z,78.64
2018-09-22T03:32:47.845Z,78.52
2018-09-22T03:33:54.573Z,78.80
2018-09-22T03:35:00.356Z,78.79
2018-09-22T03:36:05.504Z,78.78
2018-09-22T03:37:10.376Z,78.94
2018-09-22T03:38:15.318Z,78.87
2018-09-22T03:39:19.939Z,79.04
2018-09-22T03:40:24.594Z,79.20
2018-09-22T03:41:29.237Z,79.10
2018-09-22T03:42:34.161Z,79.45
2018-09-22T03:43:38.912Z,78.96
2018-09-22T03:44:44.035Z,79.37
2018-09-22T03:45:49.115Z,79.46
2018-09-22T03:46:55.042Z,79.10
2018-09-22T03:47:59.693Z,79.20
2018-09-22T03:49:04.656Z,79.27
2018-09-22T03:50:09.359Z,79.54
2018-09-22T03:51:14.565Z,79.92
2018-09-22T03:52:19.401Z,79.91
2018-09-22T03:53:24.115Z,79.69
2018-09-22T03:54:28.835Z,79.68
2018-09-22T03:55:34.418Z,79.56
2018-09-22T03:56:40.057Z,79.33
2018-09-22T03:57:45.044Z,79.45
2018-09-22T03:58:50.172Z,79.53
2018-09-22T03:59:57.954Z,79.63
2018-09-22T04:01:03.356Z,79.63
2018-09-22T04:02:08.727Z,79.97
2018-09-22T04:03:13.449Z,79.71
2018-09-22T04:04:18.414Z,79.79
2018-09-22T04:05:24.202Z,79.90
2018-09-22T04:06:29.080Z,79.94
2018-09-22T04:07:33.703Z,80.13
2018-09-22T04:08:38.439Z,80.05
2018-09-22T04:09:43.150Z,80.13
2018-09-22T04:10:48.455Z,80.16
2018-09-22T04:11:53.085Z,80.36
2018-09-22T04:12:57.761Z,80.34
2018-09-22T04:14:02.505Z,80.39
2018-09-22T04:15:07.268Z,80.37
2018-09-22T04:16:11.980Z,80.43
2018-09-22T04:17:17.004Z,80.59
2018-09-22T04:18:21.700Z,80.87
2018-09-22T04:19:26.428Z,80.71
2018-09-22T04:20:32.224Z,80.83
2018-09-22T04:21:37.627Z,80.81
2018-09-22T04:22:42.385Z,81.04
2018-09-22T04:23:47.572Z,80.69
2018-09-22T04:24:52.330Z,81.07
2018-09-22T04:25:57.180Z,81.19
2018-09-22T04:27:01.905Z,81.16
2018-09-22T04:28:06.814Z,81.54
2018-09-22T04:29:11.531Z,81.22
2018-09-22T04:30:16.468Z,81.30
2018-09-22T04:31:21.243Z,81.11
2018-09-22T04:32:25.897Z,81.49
2018-09-22T04:33:30.686Z,81.56
2018-09-22T04:34:35.335Z,81.56
2018-09-22T04:35:40.100Z,81.59
2018-09-22T04:36:46.133Z,81.58
2018-09-22T04:37:50.822Z,81.54
2018-09-22T04:38:55.501Z,81.88
2018-09-22T04:40:00.140Z,81.64
2018-09-22T04:41:07.743Z,81.33
2018-09-22T04:42:12.770Z,81.55
2018-09-22T04:43:17.712Z,81.59
2018-09-22T04:44:22.833Z,81.61
2018-09-22T04:45:27.846Z,81.27
2018-09-22T04:46:32.536Z,81.47
2018-09-22T04:47:38.233Z,81.40
2018-09-22T04:48:42.982Z,81.55
2018-09-22T04:49:48.035Z,81.73
2018-09-22T04:50:52.869Z,81.27
2018-09-22T04:52:03.401Z,81.59
2018-09-22T04:53:08.785Z,81.57
2018-09-22T04:54:14.565Z,81.51
2018-09-22T04:55:19.264Z,81.52
2018-09-22T04:56:24.345Z,81.48
2018-09-22T04:57:28.975Z,81.65
2018-09-22T04:58:34.153Z,81.60
2018-09-22T04:59:38.789Z,81.94
2018-09-22T05:00:43.504Z,81.80
2018-09-22T05:01:48.191Z,81.81
2018-09-22T05:02:53.585Z,81.98
2018-09-22T05:03:58.295Z,81.90
2018-09-22T05:05:03.104Z,81.99
2018-09-22T05:06:08.103Z,82.24
2018-09-22T05:07:13.086Z,82.50
2018-09-22T05:08:17.856Z,82.37
2018-09-22T05:09:27.812Z,82.92
2018-09-22T05:10:36.248Z,82.87
2018-09-22T05:11:41.716Z,83.03
2018-09-22T05:12:46.895Z,82.94
2018-09-22T05:13:51.619Z,83.36
2018-09-22T05:14:56.292Z,83.30
2018-09-22T05:16:02.316Z,83.04
2018-09-22T05:17:07.023Z,83.28
2018-09-22T05:18:11.901Z,83.07
2018-09-22T05:19:18.110Z,83.17
2018-09-22T05:20:22.927Z,83.42
2018-09-22T05:21:29.541Z,83.18
2018-09-22T05:22:34.434Z,83.25
2018-09-22T05:23:39.591Z,83.39
2018-09-22T05:24:46.917Z,83.41
2018-09-22T05:25:52.092Z,83.57
2018-09-22T05:26:57.376Z,83.49
2018-09-22T05:29:14.890Z,83.55
2018-09-22T05:30:21.899Z,83.52
2018-09-22T05:44:28.144Z,83.39
2018-09-22T05:45:32.981Z,83.32
2018-09-22T05:46:37.873Z,83.28
2018-09-22T05:47:43.197Z,83.17
2018-09-22T05:48:48.869Z,83.17
2018-09-22T05:49:55.038Z,83.34
2018-09-22T05:52:27.641Z,82.96
2018-09-22T05:53:32.317Z,83.10
2018-09-22T05:54:37.892Z,82.91
2018-09-22T05:55:45.980Z,83.07
2018-09-22T05:56:55.232Z,82.92
2018-09-22T05:59:23.253Z,82.89
2018-09-22T06:00:29.549Z,83.03
2018-09-22T06:01:34.390Z,82.98
2018-09-22T06:02:39.973Z,82.76
2018-09-22T06:03:46.736Z,82.77
2018-09-22T06:04:51.844Z,82.57
2018-09-22T06:05:56.548Z,82.70
2018-09-22T06:07:02.584Z,82.60
2018-09-22T06:08:07.818Z,82.94
2018-09-22T06:09:12.630Z,82.69
2018-09-22T06:10:26.302Z,82.88
2018-09-22T06:11:31.429Z,82.90
2018-09-22T06:12:38.440Z,82.53
2018-09-22T06:13:44.296Z,82.31
2018-09-22T06:14:49.281Z,82.51
2018-09-22T06:15:59.050Z,82.28
2018-09-22T06:17:07.506Z,82.33
2018-09-22T06:18:12.316Z,82.32
2018-09-22T06:19:18.211Z,82.24
2018-09-22T06:21:38.432Z,82.18
2018-09-22T06:22:43.216Z,82.35
2018-09-22T06:23:47.884Z,82.32
2018-09-22T06:24:52.668Z,82.35
2018-09-22T06:25:57.665Z,82.34
2018-09-22T06:27:03.024Z,82.00
2018-09-22T06:28:10.109Z,81.86
2018-09-22T06:29:15.037Z,81.68
2018-09-22T06:30:20.459Z,81.73
2018-09-22T06:31:25.701Z,81.70
2018-09-22T06:32:30.609Z,81.75
2018-09-22T06:33:43.265Z,80.78
2018-09-22T06:34:59.732Z,80.93
2018-09-22T06:36:13.087Z,80.68
2018-09-22T06:38:36.540Z,79.07
2018-09-22T06:39:41.903Z,78.06
2018-09-22T06:42:09.265Z,76.92
2018-09-22T06:43:20.633Z,76.79
2018-09-22T06:45:38.176Z,76.35
2018-09-22T06:46:42.924Z,76.80
2018-09-22T06:47:48.519Z,76.83
2018-09-22T06:48:53.426Z,75.62
2018-09-22T06:49:58.313Z,75.06
2018-09-22T06:51:05.420Z,74.03
2018-09-22T06:52:11.687Z,74.37
2018-09-22T06:53:25.993Z,73.86
2018-09-22T06:54:32.878Z,73.88
2018-09-22T06:55:38.275Z,73.43
2018-09-22T06:56:43.048Z,73.29
2018-09-22T06:57:48.252Z,73.14
2018-09-22T06:58:56.077Z,72.85
2018-09-22T07:00:03.242Z,73.30
2018-09-22T07:05:30.280Z,72.70
2018-09-22T07:08:40.575Z,72.79
2018-09-22T07:11:49.903Z,71.37
2018-09-22T07:19:02.671Z,69.54
2018-09-22T07:20:10.046Z,69.36
2018-09-22T07:21:16.078Z,69.77
2018-09-22T07:22:29.506Z,70.91
2018-09-22T07:23:36.898Z,71.22
2018-09-22T07:24:42.603Z,70.65
2018-09-22T07:25:51.481Z,71.18
2018-09-22T07:28:31.979Z,69.92
2018-09-22T07:29:47.746Z,70.29
2018-09-22T07:31:16.947Z,70.85
2018-09-22T07:36:02.416Z,70.83
2018-09-22T07:39:58.537Z,70.81
2018-09-22T07:41:03.650Z,71.37
2018-09-22T07:42:13.143Z,71.12
2018-09-22T07:44:48.696Z,71.27
2018-09-22T07:46:11.916Z,71.69
2018-09-22T07:48:44.729Z,71.91
2018-09-22T07:49:50.456Z,71.88
2018-09-22T07:53:05.935Z,71.81
2018-09-22T07:54:25.092Z,72.24
2018-09-22T07:55:30.785Z,72.40
2018-09-22T07:56:36.813Z,72.45
2018-09-22T07:57:41.603Z,72.63
2018-09-22T07:58:49.214Z,72.41
2018-09-22T07:59:55.496Z,72.95
2018-09-22T08:02:24.886Z,73.42
2018-09-22T08:05:18.238Z,73.18
2018-09-22T08:08:36.222Z,71.06
2018-09-22T08:10:34.509Z,69.74
2018-09-22T08:12:05.481Z,70.75
2018-09-22T08:13:10.740Z,71.33
2018-09-22T08:14:34.687Z,71.38
2018-09-22T08:15:45.101Z,71.15
2018-09-22T08:17:31.408Z,71.32
2018-09-22T08:25:29.112Z,71.02
2018-09-22T08:26:35.782Z,71.23
2018-09-22T08:27:43.509Z,71.23
2018-09-22T08:28:49.799Z,69.58
2018-09-22T08:29:56.864Z,68.31
2018-09-22T08:31:02.638Z,69.08
2018-09-22T08:32:29.559Z,70.32
2018-09-22T08:35:39.279Z,70.35
2018-09-22T08:38:11.914Z,71.20
2018-09-22T08:39:21.121Z,70.90
2018-09-22T08:41:38.223Z,70.21
2018-09-22T08:42:44.968Z,69.72
2018-09-22T08:43:51.133Z,69.73
2018-09-22T08:44:56.044Z,69.82
2018-09-22T08:46:01.709Z,69.64
2018-09-22T08:47:13.938Z,68.96
2018-09-22T08:48:21.149Z,68.94
2018-09-22T08:49:28.433Z,68.42
2018-09-22T08:50:35.591Z,68.48
2018-09-22T08:51:42.730Z,68.19
2018-09-22T08:52:48.063Z,68.24
2018-09-22T08:53:54.644Z,68.77
2018-09-22T08:55:08.510Z,69.09
2018-09-22T08:57:39.691Z,70.87
2018-09-22T08:58:44.992Z,70.73
2018-09-22T09:01:27.339Z,70.16
2018-09-22T09:02:44.783Z,70.06
2018-09-22T09:03:50.721Z,69.85
2018-09-22T09:04:56.885Z,69.10
2018-09-22T09:06:03.258Z,68.83
2018-09-22T09:07:12.056Z,68.25
2018-09-22T09:08:22.244Z,67.46
2018-09-22T09:09:30.794Z,66.13
2018-09-22T09:10:42.070Z,66.29
2018-09-22T09:11:48.124Z,65.77
2018-09-22T09:12:55.098Z,66.06
2018-09-22T09:14:00.074Z,66.14
2018-09-22T09:15:08.586Z,65.84
2018-09-22T09:16:15.325Z,64.47
2018-09-22T09:17:21.084Z,65.08
2018-09-22T09:18:37.637Z,65.53
2018-09-22T09:19:43.094Z,62.08
2018-09-22T09:20:49.105Z,60.97
2018-09-22T09:21:55.804Z,58.63
2018-09-22T09:23:06.653Z,56.94
2018-09-22T09:24:12.795Z,57.05
2018-09-22T09:25:18.536Z,57.63
2018-09-22T09:26:25.179Z,57.28
2018-09-22T09:27:31.694Z,56.76
2018-09-22T09:28:46.028Z,55.72
2018-09-22T09:29:56.168Z,52.60
2018-09-22T09:31:01.404Z,52.36
2018-09-22T09:32:18.127Z,50.71
2018-09-22T09:33:23.520Z,52.62
2018-09-22T09:34:34.811Z,52.57
2018-09-22T09:35:41.533Z,100.00
2018-09-22T09:36:48.413Z,50.45
2018-09-22T09:39:10.210Z,48.68
2018-09-22T09:40:36.346Z,47.90
2018-09-22T09:41:42.865Z,47.59
2018-09-22T09:42:49.381Z,47.07
2018-09-22T09:44:27.255Z,44.95
2018-09-22T09:45:47.939Z,45.74
2018-09-22T09:46:56.336Z,46.36
2018-09-22T09:48:01.071Z,47.56
2018-09-22T09:50:25.618Z,48.29
2018-09-22T09:51:36.373Z,50.99
2018-09-22T09:52:47.314Z,54.57
2018-09-22T09:53:54.307Z,53.56
2018-09-22T09:55:00.348Z,52.12
2018-09-22T09:56:06.963Z,51.99
2018-09-22T09:57:30.025Z,54.70
2018-09-22T09:58:36.202Z,52.69
2018-09-22T09:59:42.869Z,49.75
2018-09-22T10:00:48.183Z,47.80
2018-09-22T10:01:56.817Z,47.08
2018-09-22T10:03:02.109Z,47.29
2018-09-22T10:04:25.453Z,47.26
2018-09-22T10:05:44.021Z,46.11
2018-09-22T10:06:49.875Z,43.94
2018-09-22T10:08:17.128Z,44.24
2018-09-22T10:09:21.973Z,47.57
2018-09-22T10:10:28.672Z,48.26
2018-09-22T10:11:33.568Z,48.13
2018-09-22T10:12:38.248Z,50.59
2018-09-22T10:13:46.422Z,100.00
2018-09-22T10:14:53.171Z,53.58
2018-09-22T10:16:07.293Z,53.10
2018-09-22T10:17:12.512Z,51.88
2018-09-22T10:18:27.411Z,50.44
2018-09-22T10:19:32.695Z,48.45
2018-09-22T10:20:55.652Z,49.08
2018-09-22T10:22:11.560Z,50.24
2018-09-22T10:23:16.557Z,50.40
2018-09-22T10:24:27.593Z,49.23
2018-09-22T10:25:42.294Z,48.68
2018-09-22T10:43:46.466Z,55.08
2018-09-22T10:46:29.053Z,54.58
2018-09-22T10:50:30.694Z,53.03
2018-09-22T10:51:37.337Z,52.86
2018-09-22T10:52:47.297Z,52.85
2018-09-22T10:54:01.185Z,53.17
2018-09-22T10:55:19.679Z,52.05
2018-09-22T10:56:28.943Z,52.97
2018-09-22T10:57:38.349Z,52.45
2018-09-22T10:58:45.633Z,52.09
2018-09-22T10:59:52.559Z,51.08
2018-09-22T11:00:59.465Z,51.09
2018-09-22T11:02:04.757Z,50.25
2018-09-22T11:03:13.206Z,50.37
2018-09-22T11:04:19.254Z,50.88
2018-09-22T11:05:26.218Z,49.68
2018-09-22T11:06:31.658Z,49.97
2018-09-22T11:07:38.495Z,49.35
2018-09-22T11:08:45.007Z,48.78
2018-09-22T11:09:52.430Z,48.11
2018-09-22T11:11:08.206Z,49.07
2018-09-22T11:12:15.651Z,49.96
2018-09-22T11:13:21.977Z,50.22
2018-09-22T11:14:27.186Z,48.37
2018-09-22T11:15:35.270Z,48.04
2018-09-22T11:16:40.358Z,48.74
2018-09-22T11:17:47.039Z,50.08
2018-09-22T11:18:52.493Z,50.31
2018-09-22T11:19:57.422Z,50.20
2018-09-22T11:21:03.246Z,51.47
2018-09-22T11:22:08.660Z,52.00
2018-09-22T11:23:13.548Z,52.56
2018-09-22T11:24:19.032Z,52.72
2018-09-22T11:25:26.326Z,52.78
2018-09-22T11:26:31.617Z,52.31
2018-09-22T11:27:37.386Z,52.47
2018-09-22T11:28:51.571Z,52.36
2018-09-22T11:29:59.653Z,52.23
2018-09-22T11:31:04.711Z,52.57
2018-09-22T11:32:10.263Z,53.10
2018-09-22T11:33:16.273Z,53.05
2018-09-22T11:35:35.165Z,54.11
2018-09-22T11:36:40.606Z,54.78
2018-09-22T11:37:45.817Z,55.48
2018-09-22T11:38:50.839Z,55.24
2018-09-22T11:39:55.684Z,55.98
2018-09-22T11:41:02.283Z,56.05
2018-09-22T11:48:23.222Z,57.49
2018-09-22T11:50:58.886Z,59.31
2018-09-22T11:52:08.019Z,62.78
2018-09-22T11:53:36.119Z,65.53
2018-09-22T11:54:46.093Z,67.22
2018-09-22T11:55:52.614Z,68.57
2018-09-22T11:57:01.275Z,69.92
2018-09-22T11:58:07.048Z,71.60
2018-09-22T11:59:30.441Z,72.93
2018-09-22T12:00:35.545Z,74.57
2018-09-22T12:01:40.699Z,75.10
2018-09-22T12:02:46.977Z,76.44
2018-09-22T12:03:51.883Z,77.09
2018-09-22T12:04:56.646Z,78.08
2018-09-22T12:06:02.917Z,77.89
2018-09-22T12:07:09.154Z,78.53
2018-09-22T12:08:14.606Z,78.51
2018-09-22T12:09:19.724Z,78.11
2018-09-22T12:10:25.701Z,77.21
2018-09-22T12:11:31.696Z,76.25
2018-09-22T12:12:36.609Z,76.72
2018-09-22T12:13:41.336Z,76.49
2018-09-22T12:14:47.146Z,73.49
2018-09-22T12:15:54.113Z,72.99
2018-09-22T12:18:10.280Z,72.63
2018-09-22T12:19:19.568Z,72.07
2018-09-22T12:20:26.568Z,71.23
2018-09-22T12:21:31.388Z,70.55
2018-09-22T12:22:36.723Z,70.37
2018-09-22T12:23:45.509Z,69.69
2018-09-22T12:24:52.658Z,69.83
2018-09-22T12:25:59.640Z,69.16
2018-09-22T12:27:05.008Z,67.70
2018-09-22T12:28:10.431Z,66.10
2018-09-22T12:29:15.674Z,65.62
2018-09-22T12:30:22.246Z,64.33
2018-09-22T12:31:29.332Z,65.28
2018-09-22T12:32:34.948Z,66.44
2018-09-22T12:33:43.048Z,65.89
2018-09-22T12:34:49.133Z,66.26
2018-09-22T12:35:54.155Z,65.79
2018-09-22T12:37:02.875Z,65.63
2018-09-22T12:38:10.859Z,65.41
2018-09-22T12:39:18.562Z,65.33
2018-09-22T12:40:24.444Z,64.58
2018-09-22T12:41:30.014Z,64.25
2018-09-22T12:42:38.459Z,63.58
2018-09-22T12:45:40.680Z,65.11
2018-09-22T12:46:49.379Z,64.83
2018-09-22T12:48:02.638Z,64.58
2018-09-22T12:49:09.313Z,64.42
2018-09-22T12:50:21.351Z,64.61
2018-09-22T12:51:26.781Z,64.79
2018-09-22T12:52:32.695Z,65.79
2018-09-22T12:53:37.988Z,65.94
2018-09-22T12:54:52.459Z,66.50
2018-09-22T12:56:01.412Z,66.12
2018-09-22T12:57:13.841Z,65.55
2018-09-22T12:58:27.909Z,65.67
2018-09-22T12:59:39.026Z,64.78
2018-09-22T13:00:54.762Z,64.85
2018-09-22T13:03:55.067Z,65.47
2018-09-22T13:05:13.922Z,65.43
2018-09-22T13:07:35.811Z,64.87
2018-09-22T13:08:51.063Z,65.12
2018-09-22T13:10:04.567Z,65.10
2018-09-22T13:11:28.345Z,65.66
2018-09-22T13:12:48.249Z,65.69
2018-09-22T13:14:04.836Z,65.75
2018-09-22T13:15:10.842Z,65.72
2018-09-22T13:16:22.811Z,65.63
2018-09-22T13:18:04.278Z,65.43
2018-09-22T13:19:10.498Z,65.09
2018-09-22T13:20:20.828Z,65.80
2018-09-22T13:21:27.460Z,66.59
2018-09-22T13:22:34.330Z,68.02
2018-09-22T13:23:39.040Z,69.20
2018-09-22T13:24:44.575Z,69.98
2018-09-22T13:25:53.027Z,70.62
2018-09-22T13:26:59.356Z,71.43
2018-09-22T13:28:04.510Z,71.69
2018-09-22T13:29:11.335Z,71.75
2018-09-22T13:30:20.399Z,72.01
2018-09-22T13:31:28.312Z,72.49
2018-09-22T13:32:51.689Z,72.73
2018-09-22T13:34:05.526Z,73.12
2018-09-22T13:36:38.861Z,74.88
2018-09-22T13:39:37.613Z,76.91
2018-09-22T13:40:47.450Z,78.02
2018-09-22T13:42:10.393Z,78.70
2018-09-22T13:43:21.117Z,78.96
2018-09-22T13:44:29.973Z,79.31
2018-09-22T13:45:35.775Z,79.25
2018-09-22T13:46:54.165Z,79.24
2018-09-22T13:48:02.562Z,79.33
2018-09-22T13:49:22.363Z,79.60
2018-09-22T13:50:35.482Z,80.18
2018-09-22T13:51:41.347Z,80.09
2018-09-22T13:54:00.940Z,80.40
2018-09-22T13:55:36.294Z,80.82
2018-09-22T13:56:42.696Z,81.24
2018-09-22T13:57:55.559Z,81.47
2018-09-22T13:59:09.043Z,81.53
2018-09-22T14:00:20.238Z,81.70
2018-09-22T14:02:55.180Z,82.08
2018-09-22T14:04:10.263Z,82.59
2018-09-22T14:05:24.120Z,84.66
2018-09-22T14:06:35.743Z,85.18
2018-09-22T14:07:40.887Z,85.52
2018-09-22T14:08:47.474Z,85.63
2018-09-22T14:09:54.208Z,85.80
2018-09-22T14:11:00.721Z,85.50
2018-09-22T14:12:10.337Z,85.30
2018-09-22T14:14:48.107Z,84.91
2018-09-22T14:17:32.477Z,83.86
2018-09-22T14:18:38.780Z,83.60
2018-09-22T14:20:08.689Z,83.60
2018-09-22T14:21:29.743Z,82.54
2018-09-22T14:22:44.355Z,81.96
2018-09-22T14:23:55.918Z,82.18
2018-09-22T14:25:33.887Z,82.71
2018-09-22T14:28:59.170Z,82.33
2018-09-22T14:30:13.209Z,81.89
2018-09-22T14:34:25.694Z,81.92
2018-09-22T14:35:44.414Z,82.39
2018-09-22T14:36:55.844Z,82.66
2018-09-22T14:38:08.045Z,83.02
2018-09-22T14:40:41.133Z,83.17
2018-09-22T14:41:49.636Z,83.01
2018-09-22T14:42:54.859Z,82.96
2018-09-22T14:44:00.371Z,82.62
2018-09-22T14:45:12.499Z,82.17
2018-09-22T14:50:47.804Z,82.07
2018-09-22T14:51:53.855Z,82.33
2018-09-22T14:53:02.905Z,82.23
2018-09-22T14:54:09.406Z,82.46
2018-09-22T14:55:14.260Z,82.99
2018-09-22T14:56:19.961Z,82.46
2018-09-22T14:57:25.791Z,82.41
2018-09-22T14:58:32.699Z,82.72
2018-09-22T14:59:38.107Z,82.81
2018-09-22T15:00:44.592Z,83.04
2018-09-22T15:01:49.594Z,84.07
2018-09-22T15:02:55.404Z,85.12
2018-09-22T15:04:00.200Z,85.68
2018-09-22T15:05:07.110Z,85.39
2018-09-22T15:06:12.260Z,86.42
2018-09-22T15:07:19.188Z,86.70
2018-09-22T15:08:25.363Z,87.13
2018-09-22T15:09:32.014Z,87.37
2018-09-22T15:10:36.819Z,87.73
2018-09-22T15:11:42.035Z,87.56
2018-09-22T15:12:50.014Z,87.52
2018-09-22T15:13:57.555Z,87.67
2018-09-22T15:15:05.607Z,87.68
2018-09-22T15:16:11.188Z,87.15
2018-09-22T15:17:18.392Z,86.88
2018-09-22T15:18:27.746Z,86.32
2018-09-22T15:19:33.820Z,85.93
2018-09-22T15:20:38.707Z,85.48
2018-09-22T15:21:46.555Z,85.07
2018-09-22T15:22:57.003Z,84.39
2018-09-22T15:24:14.191Z,84.21
2018-09-22T15:25:25.669Z,83.54
2018-09-22T15:26:46.740Z,82.90
2018-09-22T15:28:06.748Z,81.91
2018-09-22T15:29:19.633Z,82.22
2018-09-22T15:30:30.621Z,82.26
2018-09-22T15:31:39.093Z,81.96
2018-09-22T15:33:01.768Z,81.22
2018-09-22T15:34:16.531Z,81.68
2018-09-22T15:35:26.232Z,81.82
2018-09-22T15:39:23.697Z,83.07
2018-09-22T15:40:32.627Z,83.15
2018-09-22T15:41:45.802Z,83.40
2018-09-22T15:44:11.646Z,83.81
2018-09-22T15:45:28.499Z,84.09
2018-09-22T15:46:36.507Z,84.67
2018-09-22T15:47:45.254Z,84.82
2018-09-22T15:48:50.561Z,85.15
2018-09-22T15:50:07.135Z,85.67
2018-09-22T15:51:12.578Z,85.93
2018-09-22T15:52:26.931Z,86.82
2018-09-22T15:53:41.857Z,87.59
2018-09-22T15:54:47.364Z,88.16
2018-09-22T15:55:59.703Z,88.04
2018-09-22T15:57:05.446Z,88.26
2018-09-22T15:58:17.394Z,88.21
2018-09-22T15:59:25.075Z,87.97
2018-09-22T16:00:33.015Z,87.92
2018-09-22T16:01:43.678Z,87.76
2018-09-22T16:02:51.828Z,87.68
2018-09-22T16:03:58.311Z,87.43
2018-09-22T16:05:07.143Z,87.26
2018-09-22T16:06:21.797Z,86.99
2018-09-22T16:07:35.464Z,86.91
2018-09-22T16:08:51.402Z,86.75
2018-09-22T16:09:56.525Z,86.68
2018-09-22T16:11:10.671Z,86.58
2018-09-22T16:12:18.770Z,86.51
2018-09-22T16:13:26.241Z,86.46
2018-09-22T16:14:34.493Z,86.46
2018-09-22T16:15:39.843Z,86.30
2018-09-22T16:16:48.972Z,86.35
2018-09-22T16:17:55.665Z,86.39
2018-09-22T16:19:05.104Z,86.13
2018-09-22T16:20:13.581Z,85.95
2018-09-22T16:21:19.740Z,85.98
2018-09-22T16:22:28.719Z,86.18
2018-09-22T16:23:37.165Z,86.13
2018-09-22T16:24:43.713Z,86.21
2018-09-22T16:25:52.542Z,86.23
2018-09-22T16:26:57.399Z,86.27
2018-09-22T16:28:03.731Z,86.39
2018-09-22T16:29:13.179Z,86.54
2018-09-22T16:30:18.563Z,86.52
2018-09-22T16:43:56.345Z,87.21
2018-09-22T16:45:02.702Z,87.51
2018-09-22T16:46:13.974Z,87.67
2018-09-22T16:49:22.620Z,88.06
2018-09-22T16:52:14.813Z,88.53
2018-09-22T16:55:18.732Z,88.42
2018-09-22T17:04:58.148Z,89.04
2018-09-22T17:06:05.010Z,89.15
2018-09-22T17:07:16.269Z,89.54
2018-09-22T17:08:29.064Z,89.55
2018-09-22T17:09:43.006Z,89.95
2018-09-22T17:14:27.130Z,91.49
2018-09-22T17:15:59.521Z,91.51
2018-09-22T17:18:50.424Z,92.51
2018-09-22T17:19:59.474Z,92.42
2018-09-22T17:21:20.162Z,92.03
2018-09-22T17:22:45.737Z,92.04
2018-09-22T17:24:15.262Z,92.41
2018-09-22T17:25:23.394Z,92.74
2018-09-22T17:28:00.464Z,93.14
2018-09-22T17:29:14.320Z,93.06
2018-09-22T17:30:29.387Z,93.11
2018-09-22T17:32:03.044Z,92.94
2018-09-22T17:33:18.241Z,93.14
2018-09-22T17:34:30.772Z,93.21
2018-09-22T17:35:37.261Z,93.09
2018-09-22T17:36:43.143Z,93.16
2018-09-22T17:37:57.360Z,93.11
2018-09-22T17:39:05.222Z,93.46
2018-09-22T17:40:14.951Z,93.20
2018-09-22T17:41:20.295Z,93.37
2018-09-22T17:42:46.049Z,93.45
2018-09-22T17:43:55.644Z,93.33
2018-09-22T17:46:32.418Z,93.63
2018-09-22T17:47:45.236Z,93.84
2018-09-22T17:49:04.570Z,94.19
2018-09-22T17:50:12.390Z,94.28